Airfield :







YOU CAN JOIN US ON...

 
LOGIN :

Register | Disclaimer

   EN    FR    IT 

 









Legend :    VFR   Marginal VFR   IFR   Intensive IFR   Very Intensive IFR
Visi :
Ceiling :
>= 8 km
>= 3000ft
5 to 8 km
1000 to 3000 ft
1500m to 5 km
500 to 1000 ft
800 to 1500m
200 to 500 ft
< 800m
< 200 ft
Symbols :   Thunderstorms  Fog  Heavy snow  Heavy precipitations  Wind > 20 kt







- Airport Elevation : 84 ft
- IATA code : YJT


CYJT - Stephenville

CURRENT METAR :
  • 191700Z 23010KT 15SM FEW024 FEW090 13/09 A3021 RMK SC1AC1 SC TR AC TR SLP232

EXPIRED METARs :
  • 191600Z 25010KT 15SM FEW023 FEW070 13/08 A3021 RMK SC1AC1 AC TR SLP231
  • 191500Z 24013KT 15SM SCT023 SCT070 13/08 A3022 RMK SC3AC1 AC TR SLP235

TAF TAF CYJT
Valid from the 19 at 12:00 until the 20 at 12:00 UTC


191138Z 1912/2012 VRB03KT P6SM BKN015
TEMPO 1912/1913 SCT015 BKN025
FM191300 VRB03KT P6SM FEW020
BECMG 1913/1915 25008KT
FM191700 24012KT P6SM SKC
BECMG 1923/2001 VRB03KT RMK NXT FCST BY 191800Z
No reported NOTAMs for that airfield.



MET'MAP, your aeronautical weather chart ! - Copyright ORBIFLY December 2007 - Disclaimer

ORBIFLY MET'MAP TEAM :

Programming & Development : Alexandra Zaïnal
Concept & Development : Baudouin d'Aumeries
Co-Development & Prog : Marc-Olivier Méhu
Technical & hardware support : Manuel Goepfert

Contact : metmap@orbifly.com




SOURCES & CREDITS :

   NOAA